Share

Kayenta, AZ

HADS KAYENTA 16 WSW AZ US (MKNTA3) Elev 7274 ft | 36.68 °N, 110.54 °W | Change Station

Current weather conditions updated 1 hour ago

Clear
Clear
55 °F
Feels Like 55 °F
N
Wind Variable Wind from North
Gusts 0.0 mph
Sunrise 6:46 AM
Sunset 7:57 PM
Moon Waning Gibbous

Tomorrow is forecast to be Warmer than today.

Pressure 29.83 in
Visibility 10.0 miles
Clouds Clear
Dew Point Not available.
Humidity Not available.
Rainfall -999.00 in
Snow Depth Not available.
UV 2 out of 16
Pollen 9.40 out of 12
Air Quality Not available.
Flu Activity Local Activity
METAR KGCN 162354Z 31009G15KT 10SM CLR 18/M11 A2994 RMK AO2 SLP100 6//// T01831106 56008

More Conditions Fewer Conditions

Pressure 29.83 in
Visibility 10.0 miles
Clouds Clear
Dew Point Not available.
Humidity Not available.
Rainfall -999.00 in
Snow Depth Not available.
UV 2 out of 16
Pollen 9.40 out of 12
Air Quality Not available.
Flu Activity Local Activity
METAR KGCN 162354Z 31009G15KT 10SM CLR 18/M11 A2994 RMK AO2 SLP100 6//// T01831106 56008

More Conditions Fewer Conditions

10-Day Forecast

Almanac

Astronomy

Apr. 16, 2014 Rise Set
Actual Time 6:46 AM MDT 7:57 PM MDT
Civil Twilight 6:20 AM MDT 8:24 PM MDT
Nautical Twilight 5:48 AM MDT 8:56 PM MDT
Astronomical Twilight 5:15 AM MDT 9:29 PM MDT
Moon 9:42 PM MDT (4/16) 7:38 AM MDT (4/16)
Length of Visible Light 14h 04m
Length of Day
13h 10m
Tomorrow will be 2m 12s longer.
Waning Gibbous, 97% of the Moon is Illuminated
Today
Waning Gibbous
Apr 22
Last Quarter
Apr 29
New
May 6
First Quarter
May 14
Full

Today's Extremes

State Highs State Lows

Community

  • symphony in blue....
    symphony in blue....
  • Dawn Surprise
    Dawn Surprise
  • Yucca delight
    Yucca delight
  • Sunset inside of the Ocean
    Sunset inside of the Ocean
  • Lunar eclipse 15 April 2014
    Lunar eclipse 15 April 2014

WunderPhotos

Upload Photos

1,701,768 photos uploaded!

WunderBlogs® & News

Nearby

Snow Depth

Station Depth Elevation
Snowslide Canyon 9 in 9730 ft
Promontory 0 in 7930 ft
Workman Creek 0 in 6900 ft
Maverick Fork 0 in 9200 ft

Coastal Water Temperatures

Place Temperature
No Stations Reporting

Earthquake Activity

City Distance Mag. Time & Date
No recent earthquake activity has been reported nearby.
Minimum magnitude displayed is 2.5.

Nearby Weather Stations

Station Location Temp. Dew Point Humidity Wind Precip. Elev Updated Type
HADS KAYENTA 16 WSW AZ, Shonto, AZ 55 °F - - North  at  - 0.00 in / hr 7274 ft 4:25 PM MST MADIS

Show More Stations Show Fewer Stations

What do you think?

We're not finished. Please let us know what you like, what you don't like, and what you are still missing.